sensor_id;sensor_type;location;lat;lon;timestamp;pressure;altitude;pressure_sealevel;temperature;humidity
63285;BME280;49409;55.708;37.522;2023-02-25T00:02:22;97499.03;;;5.43;46.97
63285;BME280;49409;55.708;37.522;2023-02-25T00:04:48;97495.47;;;5.46;46.56
63285;BME280;49409;55.708;37.522;2023-02-25T00:07:13;97489.06;;;5.52;46.98
63285;BME280;49409;55.708;37.522;2023-02-25T00:09:39;97486.66;;;5.54;46.48
63285;BME280;49409;55.708;37.522;2023-02-25T00:12:05;97490.53;;;5.57;47.00
63285;BME280;49409;55.708;37.522;2023-02-25T00:14:30;97490.53;;;5.57;46.98
63285;BME280;49409;55.708;37.522;2023-02-25T00:16:56;97481.13;;;5.58;46.91
63285;BME280;49409;55.708;37.522;2023-02-25T00:19:22;97488.47;;;5.61;47.17
63285;BME280;49409;55.708;37.522;2023-02-25T00:21:47;97484.53;;;5.62;46.60
63285;BME280;49409;55.708;37.522;2023-02-25T00:24:13;97472.69;;;5.69;46.82
63285;BME280;49409;55.708;37.522;2023-02-25T00:26:38;97480.88;;;5.69;46.65
63285;BME280;49409;55.708;37.522;2023-02-25T00:29:04;97477.88;;;5.63;46.83
63285;BME280;49409;55.708;37.522;2023-02-25T00:31:30;97474.50;;;5.59;47.04
63285;BME280;49409;55.708;37.522;2023-02-25T00:33:55;97470.75;;;5.53;47.15
63285;BME280;49409;55.708;37.522;2023-02-25T00:36:22;97460.94;;;5.55;46.88
63285;BME280;49409;55.708;37.522;2023-02-25T00:38:56;97464.19;;;5.50;47.21
63285;BME280;49409;55.708;37.522;2023-02-25T00:41:23;97460.94;;;5.55;46.96
63285;BME280;49409;55.708;37.522;2023-02-25T00:43:50;97464.09;;;5.54;47.66
63285;BME280;49409;55.708;37.522;2023-02-25T00:46:16;97460.50;;;5.57;47.48
63285;BME280;49409;55.708;37.522;2023-02-25T00:48:41;97449.06;;;5.62;47.10
63285;BME280;49409;55.708;37.522;2023-02-25T00:51:08;97445.91;;;5.64;47.07
63285;BME280;49409;55.708;37.522;2023-02-25T00:53:33;97446.47;;;5.71;46.87
63285;BME280;49409;55.708;37.522;2023-02-25T00:55:59;97456.72;;;5.67;47.04
63285;BME280;49409;55.708;37.522;2023-02-25T00:58:25;97453.38;;;5.76;46.54
63285;BME280;49409;55.708;37.522;2023-02-25T01:00:50;97451.63;;;5.82;46.98
63285;BME280;49409;55.708;37.522;2023-02-25T01:03:16;97438.53;;;5.77;47.08
63285;BME280;49409;55.708;37.522;2023-02-25T01:05:41;97442.44;;;5.76;47.29
63285;BME280;49409;55.708;37.522;2023-02-25T01:08:07;97438.53;;;5.77;47.27
63285;BME280;49409;55.708;37.522;2023-02-25T01:10:32;97450.22;;;5.78;47.04
63285;BME280;49409;55.708;37.522;2023-02-25T01:12:57;97452.59;;;5.75;47.30
63285;BME280;49409;55.708;37.522;2023-02-25T01:15:23;97446.63;;;5.81;46.71
63285;BME280;49409;55.708;37.522;2023-02-25T01:17:48;97446.31;;;5.79;46.80
63285;BME280;49409;55.708;37.522;2023-02-25T01:20:13;97440.16;;;5.74;46.91
63285;BME280;49409;55.708;37.522;2023-02-25T01:22:43;97435.03;;;5.76;46.92
63285;BME280;49409;55.708;37.522;2023-02-25T01:25:12;97434.69;;;5.74;47.44
63285;BME280;49409;55.708;37.522;2023-02-25T01:27:39;97434.69;;;5.74;46.85
63285;BME280;49409;55.708;37.522;2023-02-25T01:30:05;97436.91;;;5.80;46.64
63285;BME280;49409;55.708;37.522;2023-02-25T01:32:31;97429.94;;;5.79;46.91
63285;BME280;49409;55.708;37.522;2023-02-25T01:34:56;97428.19;;;5.85;46.82
63285;BME280;49409;55.708;37.522;2023-02-25T01:37:22;97428.53;;;5.87;46.86
63285;BME280;49409;55.708;37.522;2023-02-25T01:39:47;97424.06;;;5.93;46.90
63285;BME280;49409;55.708;37.522;2023-02-25T01:42:13;97431.41;;;5.96;46.73
63285;BME280;49409;55.708;37.522;2023-02-25T01:47:24;97417.22;;;6.01;46.60
63285;BME280;49409;55.708;37.522;2023-02-25T01:49:51;97414.59;;;5.98;47.06
63285;BME280;49409;55.708;37.522;2023-02-25T01:52:20;97418.09;;;5.98;47.17
63285;BME280;49409;55.708;37.522;2023-02-25T01:54:47;97417.38;;;5.94;47.24
63285;BME280;49409;55.708;37.522;2023-02-25T01:57:15;97420.13;;;5.94;47.18
63285;BME280;49409;55.708;37.522;2023-02-25T01:59:41;97416.41;;;5.88;47.42
63285;BME280;49409;55.708;37.522;2023-02-25T02:02:10;97415.63;;;5.87;47.75
63285;BME280;49409;55.708;37.522;2023-02-25T02:04:36;97418.78;;;5.86;47.21
63285;BME280;49409;55.708;37.522;2023-02-25T02:07:02;97405.81;;;5.90;47.26
63285;BME280;49409;55.708;37.522;2023-02-25T02:09:28;97412.28;;;5.96;47.32
63285;BME280;49409;55.708;37.522;2023-02-25T02:11:55;97408.38;;;5.97;47.43
63285;BME280;49409;55.708;37.522;2023-02-25T02:14:24;97407.50;;;6.00;47.13
63285;BME280;49409;55.708;37.522;2023-02-25T02:22:18;97404.25;;;6.05;46.93
63285;BME280;49409;55.708;37.522;2023-02-25T02:37:55;97386.09;;;6.11;47.44
63285;BME280;49409;55.708;37.522;2023-02-25T02:40:15;97382.28;;;6.09;47.46
63285;BME280;49409;55.708;37.522;2023-02-25T02:43:30;97381.22;;;6.06;47.38
63285;BME280;49409;55.708;37.522;2023-02-25T02:48:17;97377.78;;;6.02;47.51
63285;BME280;49409;55.708;37.522;2023-02-25T02:50:50;97373.03;;;6.06;47.41
63285;BME280;49409;55.708;37.522;2023-02-25T02:53:18;97389.59;;;5.99;47.52
63285;BME280;49409;55.708;37.522;2023-02-25T02:55:48;97382.91;;;6.00;47.38
63285;BME280;49409;55.708;37.522;2023-02-25T02:58:20;97390.59;;;6.05;47.32
63285;BME280;49409;55.708;37.522;2023-02-25T03:00:47;97381.75;;;6.01;47.34
63285;BME280;49409;55.708;37.522;2023-02-25T03:03:19;97377.13;;;5.98;47.20
63285;BME280;49409;55.708;37.522;2023-02-25T03:05:48;97381.06;;;5.97;47.50
63285;BME280;49409;55.708;37.522;2023-02-25T03:08:24;97371.88;;;5.91;47.69
63285;BME280;49409;55.708;37.522;2023-02-25T03:10:50;97367.94;;;5.92;47.90
63285;BME280;49409;55.708;37.522;2023-02-25T03:13:16;97364.69;;;5.97;47.34
63285;BME280;49409;55.708;37.522;2023-02-25T03:15:41;97374.63;;;6.04;47.86
63285;BME280;49409;55.708;37.522;2023-02-25T03:18:11;97378.25;;;6.13;47.28
63285;BME280;49409;55.708;37.522;2023-02-25T03:20:41;97371.03;;;6.20;46.99
63285;BME280;49409;55.708;37.522;2023-02-25T03:23:08;97374.22;;;6.18;47.56
63285;BME280;49409;55.708;37.522;2023-02-25T03:25:36;97367.78;;;6.25;47.32
63285;BME280;49409;55.708;37.522;2023-02-25T03:28:09;97371.69;;;6.24;47.44
63285;BME280;49409;55.708;37.522;2023-02-25T03:30:43;97366.47;;;6.17;47.76
63285;BME280;49409;55.708;37.522;2023-02-25T03:33:12;97367.31;;;6.13;47.49
63285;BME280;49409;55.708;37.522;2023-02-25T03:35:38;97363.19;;;6.22;47.86
63285;BME280;49409;55.708;37.522;2023-02-25T03:38:08;97360.25;;;6.29;47.54
63285;BME280;49409;55.708;37.522;2023-02-25T03:40:35;97371.16;;;6.29;47.41
63285;BME280;49409;55.708;37.522;2023-02-25T03:43:03;97359.13;;;6.39;47.53
63285;BME280;49409;55.708;37.522;2023-02-25T03:45:32;97365.69;;;6.42;47.28
63285;BME280;49409;55.708;37.522;2023-02-25T03:47:58;97373.03;;;6.32;47.71
63285;BME280;49409;55.708;37.522;2023-02-25T03:50:28;97372.25;;;6.31;47.43
63285;BME280;49409;55.708;37.522;2023-02-25T03:52:55;97369.84;;;6.33;48.05
63285;BME280;49409;55.708;37.522;2023-02-25T03:55:20;97360.22;;;6.42;47.75
63285;BME280;49409;55.708;37.522;2023-02-25T03:57:47;97362.53;;;6.43;47.74
63285;BME280;49409;55.708;37.522;2023-02-25T04:00:15;97364.47;;;6.55;47.47
63285;BME280;49409;55.708;37.522;2023-02-25T04:02:43;97365.47;;;6.62;47.34
63285;BME280;49409;55.708;37.522;2023-02-25T04:05:09;97353.88;;;6.70;47.10
63285;BME280;49409;55.708;37.522;2023-02-25T04:07:34;97347.53;;;6.73;47.36
63285;BME280;49409;55.708;37.522;2023-02-25T04:10:00;97355.25;;;6.75;47.31
63285;BME280;49409;55.708;37.522;2023-02-25T04:12:25;97355.50;;;6.68;47.96
63285;BME280;49409;55.708;37.522;2023-02-25T04:14:51;97354.50;;;6.74;47.15
63285;BME280;49409;55.708;37.522;2023-02-25T04:17:16;97358.09;;;6.84;47.30
63285;BME280;49409;55.708;37.522;2023-02-25T04:19:43;97356.44;;;6.87;47.15
63285;BME280;49409;55.708;37.522;2023-02-25T04:22:08;97357.56;;;6.89;47.17
63285;BME280;49409;55.708;37.522;2023-02-25T04:24:34;97353.59;;;6.90;47.18
63285;BME280;49409;55.708;37.522;2023-02-25T04:26:59;97352.84;;;6.90;47.31
63285;BME280;49409;55.708;37.522;2023-02-25T04:29:26;97346.94;;;6.91;47.29
63285;BME280;49409;55.708;37.522;2023-02-25T04:31:51;97353.81;;;6.96;47.15
63285;BME280;49409;55.708;37.522;2023-02-25T04:34:17;97351.50;;;6.94;47.39
63285;BME280;49409;55.708;37.522;2023-02-25T04:36:43;97354.56;;;6.97;47.35
63285;BME280;49409;55.708;37.522;2023-02-25T04:39:09;97356.75;;;7.02;47.33
63285;BME280;49409;55.708;37.522;2023-02-25T04:41:35;97352.16;;;6.99;47.38
63285;BME280;49409;55.708;37.522;2023-02-25T04:44:01;97356.44;;;7.00;47.57
63285;BME280;49409;55.708;37.522;2023-02-25T04:46:29;97363.66;;;6.93;47.43
63285;BME280;49409;55.708;37.522;2023-02-25T04:48:55;97357.88;;;6.91;47.43
63285;BME280;49409;55.708;37.522;2023-02-25T04:51:20;97362.44;;;6.94;47.32
63285;BME280;49409;55.708;37.522;2023-02-25T04:53:46;97361.56;;;6.98;47.40
63285;BME280;49409;55.708;37.522;2023-02-25T04:56:11;97360.81;;;6.97;47.57
63285;BME280;49409;55.708;37.522;2023-02-25T04:58:36;97362.31;;;6.98;47.64
63285;BME280;49409;55.708;37.522;2023-02-25T05:01:03;97363.97;;;6.95;47.78
63285;BME280;49409;55.708;37.522;2023-02-25T05:03:30;97363.72;;;7.03;47.49
63285;BME280;49409;55.708;37.522;2023-02-25T05:05:55;97358.78;;;7.10;47.37
63285;BME280;49409;55.708;37.522;2023-02-25T05:08:21;97365.91;;;7.08;47.73
63285;BME280;49409;55.708;37.522;2023-02-25T05:10:46;97362.63;;;7.13;47.38
63285;BME280;49409;55.708;37.522;2023-02-25T05:13:12;97359.31;;;7.18;47.44
63285;BME280;49409;55.708;37.522;2023-02-25T05:15:37;97364.22;;;7.23;47.60
63285;BME280;49409;55.708;37.522;2023-02-25T05:18:02;97363.91;;;7.21;47.50
63285;BME280;49409;55.708;37.522;2023-02-25T05:20:28;97360.72;;;7.23;47.70
63285;BME280;49409;55.708;37.522;2023-02-25T05:22:53;97349.66;;;7.26;47.64
63285;BME280;49409;55.708;37.522;2023-02-25T05:25:19;97356.66;;;7.27;47.64
63285;BME280;49409;55.708;37.522;2023-02-25T05:27:44;97368.69;;;7.30;47.76
63285;BME280;49409;55.708;37.522;2023-02-25T05:30:10;97367.00;;;7.32;47.48
63285;BME280;49409;55.708;37.522;2023-02-25T05:32:35;97370.06;;;7.34;47.51
63285;BME280;49409;55.708;37.522;2023-02-25T05:35:03;97370.06;;;7.34;47.70
63285;BME280;49409;55.708;37.522;2023-02-25T05:37:29;97365.25;;;7.39;47.72
63285;BME280;49409;55.708;37.522;2023-02-25T05:39:55;97374.22;;;7.39;48.05
63285;BME280;49409;55.708;37.522;2023-02-25T05:42:20;97369.72;;;7.45;47.75
63285;BME280;49409;55.708;37.522;2023-02-25T05:44:45;97369.16;;;7.50;47.78
63285;BME280;49409;55.708;37.522;2023-02-25T05:47:11;97375.38;;;7.51;47.73
63285;BME280;49409;55.708;37.522;2023-02-25T05:49:39;97372.69;;;7.60;47.64
63285;BME280;49409;55.708;37.522;2023-02-25T05:52:04;97378.94;;;7.61;47.40
63285;BME280;49409;55.708;37.522;2023-02-25T05:54:29;97377.28;;;7.63;47.73
63285;BME280;49409;55.708;37.522;2023-02-25T05:56:55;97363.03;;;7.68;47.72
63285;BME280;49409;55.708;37.522;2023-02-25T05:59:20;97359.06;;;7.69;47.76
63285;BME280;49409;55.708;37.522;2023-02-25T06:01:45;97357.41;;;7.72;47.73
63285;BME280;49409;55.708;37.522;2023-02-25T06:04:11;97371.75;;;7.76;47.62
63285;BME280;49409;55.708;37.522;2023-02-25T06:06:36;97377.72;;;7.84;47.69
63285;BME280;49409;55.708;37.522;2023-02-25T06:09:02;97379.25;;;7.85;47.56
63285;BME280;49409;55.708;37.522;2023-02-25T06:11:30;97376.84;;;7.87;47.77
63285;BME280;49409;55.708;37.522;2023-02-25T06:13:58;97379.69;;;7.83;47.79
63285;BME280;49409;55.708;37.522;2023-02-25T06:16:24;97377.16;;;7.89;47.82
63285;BME280;49409;55.708;37.522;2023-02-25T06:18:50;97381.47;;;7.99;47.72
63285;BME280;49409;55.708;37.522;2023-02-25T06:21:15;97372.69;;;8.13;47.51
63285;BME280;49409;55.708;37.522;2023-02-25T06:23:41;97384.34;;;8.27;47.48
63285;BME280;49409;55.708;37.522;2023-02-25T06:26:07;97392.59;;;8.36;47.28
63285;BME280;49409;55.708;37.522;2023-02-25T06:28:34;97388.09;;;8.42;47.08
63285;BME280;49409;55.708;37.522;2023-02-25T06:30:59;97385.59;;;8.35;47.23
63285;BME280;49409;55.708;37.522;2023-02-25T06:33:24;97379.47;;;8.31;47.50
63285;BME280;49409;55.708;37.522;2023-02-25T06:35:53;97384.66;;;8.29;47.41
63285;BME280;49409;55.708;37.522;2023-02-25T06:38:19;97389.50;;;8.25;47.53
63285;BME280;49409;55.708;37.522;2023-02-25T06:40:44;97374.91;;;8.28;47.60
63285;BME280;49409;55.708;37.522;2023-02-25T06:43:10;97383.94;;;8.38;47.40
63285;BME280;49409;55.708;37.522;2023-02-25T06:45:35;97385.34;;;8.42;47.56
63285;BME280;49409;55.708;37.522;2023-02-25T06:48:01;97386.72;;;8.47;47.17
63285;BME280;49409;55.708;37.522;2023-02-25T06:50:26;97385.09;;;8.49;47.23
63285;BME280;49409;55.708;37.522;2023-02-25T06:52:52;97380.81;;;8.48;47.42
63285;BME280;49409;55.708;37.522;2023-02-25T06:55:17;97378.06;;;8.48;47.32
63285;BME280;49409;55.708;37.522;2023-02-25T06:57:42;97380.94;;;8.45;47.38
63285;BME280;49409;55.708;37.522;2023-02-25T07:00:08;97384.47;;;8.45;47.40
63285;BME280;49409;55.708;37.522;2023-02-25T07:02:33;97391.31;;;8.50;47.34
63285;BME280;49409;55.708;37.522;2023-02-25T07:04:59;97388.84;;;8.43;47.50
63285;BME280;49409;55.708;37.522;2023-02-25T07:07:26;97381.13;;;8.50;47.81
63285;BME280;49409;55.708;37.522;2023-02-25T07:09:52;97380.97;;;8.54;47.54
63285;BME280;49409;55.708;37.522;2023-02-25T07:12:17;97381.47;;;8.62;47.39
63285;BME280;49409;55.708;37.522;2023-02-25T07:14:43;97386.38;;;8.76;47.50
63285;BME280;49409;55.708;37.522;2023-02-25T07:17:09;97386.38;;;8.76;47.24
63285;BME280;49409;55.708;37.522;2023-02-25T07:19:35;97391.13;;;8.85;47.21
63285;BME280;49409;55.708;37.522;2023-02-25T07:22:00;97387.31;;;8.91;47.00
63285;BME280;49409;55.708;37.522;2023-02-25T07:24:28;97384.75;;;8.97;46.99
63285;BME280;49409;55.708;37.522;2023-02-25T07:26:54;97386.44;;;8.95;47.14
63285;BME280;49409;55.708;37.522;2023-02-25T07:29:20;97384.28;;;8.89;47.17
63285;BME280;49409;55.708;37.522;2023-02-25T07:31:45;97385.78;;;8.90;47.04
63285;BME280;49409;55.708;37.522;2023-02-25T07:34:11;97396.75;;;8.90;47.39
63285;BME280;49409;55.708;37.522;2023-02-25T07:36:37;97399.22;;;8.98;46.91
63285;BME280;49409;55.708;37.522;2023-02-25T07:39:03;97394.97;;;8.97;47.17
63285;BME280;49409;55.708;37.522;2023-02-25T07:41:30;97395.88;;;9.03;46.86
63285;BME280;49409;55.708;37.522;2023-02-25T07:43:55;97396.94;;;9.05;46.90
63285;BME280;49409;55.708;37.522;2023-02-25T07:46:21;97395.28;;;9.08;46.99
63285;BME280;49409;55.708;37.522;2023-02-25T07:48:46;97389.50;;;9.15;47.11
63285;BME280;49409;55.708;37.522;2023-02-25T07:51:14;97398.03;;;9.17;46.95
63285;BME280;49409;55.708;37.522;2023-02-25T07:53:40;97384.34;;;9.26;47.07
63285;BME280;49409;55.708;37.522;2023-02-25T07:56:05;97405.06;;;9.37;47.05
63285;BME280;49409;55.708;37.522;2023-02-25T07:58:31;97397.75;;;9.43;46.65
63285;BME280;49409;55.708;37.522;2023-02-25T08:00:57;97400.81;;;9.54;46.73
63285;BME280;49409;55.708;37.522;2023-02-25T08:03:22;97406.59;;;9.56;46.80
63285;BME280;49409;55.708;37.522;2023-02-25T08:05:51;97398.81;;;9.55;46.86
63285;BME280;49409;55.708;37.522;2023-02-25T08:08:18;97398.66;;;9.58;46.77
63285;BME280;49409;55.708;37.522;2023-02-25T08:10:43;97402.63;;;9.57;46.75
63285;BME280;49409;55.708;37.522;2023-02-25T08:13:09;97394.38;;;9.66;46.56
63285;BME280;49409;55.708;37.522;2023-02-25T08:15:34;97410.22;;;9.81;46.43
63285;BME280;49409;55.708;37.522;2023-02-25T08:18:03;97410.69;;;9.88;46.29
63285;BME280;49409;55.708;37.522;2023-02-25T08:20:29;97404.09;;;9.95;46.21
63285;BME280;49409;55.708;37.522;2023-02-25T08:22:54;97408.06;;;10.03;46.52
63285;BME280;49409;55.708;37.522;2023-02-25T08:25:21;97409.13;;;10.06;46.37
63285;BME280;49409;55.708;37.522;2023-02-25T08:27:46;97406.84;;;10.04;46.47
63285;BME280;49409;55.708;37.522;2023-02-25T08:30:11;97407.16;;;10.06;46.39
63285;BME280;49409;55.708;37.522;2023-02-25T08:32:37;97409.28;;;10.02;46.38
63285;BME280;49409;55.708;37.522;2023-02-25T08:35:03;97407.00;;;10.01;46.13
63285;BME280;49409;55.708;37.522;2023-02-25T08:37:28;97404.41;;;10.06;46.19
63285;BME280;49409;55.708;37.522;2023-02-25T08:39:54;97416.75;;;10.11;46.34
63285;BME280;49409;55.708;37.522;2023-02-25T08:42:20;97411.09;;;10.15;46.00
63285;BME280;49409;55.708;37.522;2023-02-25T08:44:47;97413.53;;;10.22;46.28
63285;BME280;49409;55.708;37.522;2023-02-25T08:47:35;97411.81;;;10.24;46.38
63285;BME280;49409;55.708;37.522;2023-02-25T08:50:00;97415.03;;;10.32;46.17
63285;BME280;49409;55.708;37.522;2023-02-25T08:52:26;97417.16;;;10.28;45.87
63285;BME280;49409;55.708;37.522;2023-02-25T08:54:58;97408.91;;;10.28;46.26
63285;BME280;49409;55.708;37.522;2023-02-25T08:57:23;97411.53;;;10.22;45.87
63285;BME280;49409;55.708;37.522;2023-02-25T08:59:50;97400.69;;;10.19;45.98
63285;BME280;49409;55.708;37.522;2023-02-25T09:02:16;97410.19;;;10.18;46.36
63285;BME280;49409;55.708;37.522;2023-02-25T09:04:41;97399.47;;;10.20;45.82
63285;BME280;49409;55.708;37.522;2023-02-25T09:07:06;97403.44;;;10.19;46.36
63285;BME280;49409;55.708;37.522;2023-02-25T09:09:32;97398.09;;;10.24;45.99
63285;BME280;49409;55.708;37.522;2023-02-25T09:11:58;97409.25;;;10.21;45.82
63285;BME280;49409;55.708;37.522;2023-02-25T09:14:23;97418.72;;;10.20;46.32
63285;BME280;49409;55.708;37.522;2023-02-25T09:16:49;97414.72;;;10.21;45.89
63285;BME280;49409;55.708;37.522;2023-02-25T09:19:14;97420.41;;;10.17;46.11
63285;BME280;49409;55.708;37.522;2023-02-25T09:21:42;97406.81;;;10.13;46.39
63285;BME280;49409;55.708;37.522;2023-02-25T09:24:07;97408.19;;;10.18;46.07
63285;BME280;49409;55.708;37.522;2023-02-25T09:26:33;97409.72;;;10.19;46.11
63285;BME280;49409;55.708;37.522;2023-02-25T09:28:59;97409.88;;;10.25;45.92
63285;BME280;49409;55.708;37.522;2023-02-25T09:31:24;97413.53;;;10.31;45.83
63285;BME280;49409;55.708;37.522;2023-02-25T09:33:50;97410.16;;;10.36;46.07
63285;BME280;49409;55.708;37.522;2023-02-25T09:36:16;97414.88;;;10.36;46.16
63285;BME280;49409;55.708;37.522;2023-02-25T09:38:42;97399.31;;;10.32;46.15
63285;BME280;49409;55.708;37.522;2023-02-25T09:41:21;97401.13;;;10.26;45.92
63285;BME280;49409;55.708;37.522;2023-02-25T09:43:47;97397.34;;;10.24;46.31
63285;BME280;49409;55.708;37.522;2023-02-25T09:46:14;97405.72;;;10.29;46.25
63285;BME280;49409;55.708;37.522;2023-02-25T09:51:29;97410.13;;;10.45;45.89
63285;BME280;49409;55.708;37.522;2023-02-25T09:56:27;97411.91;;;10.58;45.79
63285;BME280;49409;55.708;37.522;2023-02-25T09:58:57;97413.72;;;10.61;45.83
63285;BME280;49409;55.708;37.522;2023-02-25T10:03:53;97415.50;;;10.73;45.41
63285;BME280;49409;55.708;37.522;2023-02-25T10:06:33;97413.06;;;10.75;45.37
63285;BME280;49409;55.708;37.522;2023-02-25T10:27:34;97417.84;;;10.89;45.03
63285;BME280;49409;55.708;37.522;2023-02-25T10:30:05;97419.84;;;10.89;45.06
63285;BME280;49409;55.708;37.522;2023-02-25T10:32:33;97434.38;;;10.89;45.10
63285;BME280;49409;55.708;37.522;2023-02-25T10:35:00;97426.78;;;10.84;45.65
63285;BME280;49409;55.708;37.522;2023-02-25T10:37:28;97424.94;;;10.81;45.21
63285;BME280;49409;55.708;37.522;2023-02-25T10:39:56;97413.00;;;10.84;45.41
63285;BME280;49409;55.708;37.522;2023-02-25T10:42:23;97421.84;;;10.88;45.32
63285;BME280;49409;55.708;37.522;2023-02-25T10:44:48;97418.81;;;10.86;45.38
63285;BME280;49409;55.708;37.522;2023-02-25T10:47:23;97413.59;;;10.88;45.42
63285;BME280;49409;55.708;37.522;2023-02-25T10:50:33;97411.19;;;10.81;45.45
63285;BME280;49409;55.708;37.522;2023-02-25T10:55:28;97409.66;;;10.80;45.39
63285;BME280;49409;55.708;37.522;2023-02-25T10:57:53;97414.22;;;10.83;45.32
63285;BME280;49409;55.708;37.522;2023-02-25T11:00:25;97414.81;;;10.87;45.18
63285;BME280;49409;55.708;37.522;2023-02-25T11:02:50;97414.81;;;10.87;45.17
63285;BME280;49409;55.708;37.522;2023-02-25T11:05:33;97424.47;;;10.83;45.44
63285;BME280;49409;55.708;37.522;2023-02-25T11:08:00;97435.06;;;10.75;45.60
63285;BME280;49409;55.708;37.522;2023-02-25T11:10:26;97432.59;;;10.77;45.26
63285;BME280;49409;55.708;37.522;2023-02-25T11:12:52;97422.88;;;10.67;45.78
63285;BME280;49409;55.708;37.522;2023-02-25T11:15:26;97430.72;;;10.50;46.09
63285;BME280;49409;55.708;37.522;2023-02-25T11:17:52;97430.88;;;10.46;46.13
63285;BME280;49409;55.708;37.522;2023-02-25T11:20:22;97431.38;;;10.45;45.98
63285;BME280;49409;55.708;37.522;2023-02-25T11:22:50;97434.72;;;10.40;46.07
63285;BME280;49409;55.708;37.522;2023-02-25T11:25:18;97427.22;;;10.40;46.04
63285;BME280;49409;55.708;37.522;2023-02-25T11:27:46;97428.19;;;10.37;46.25
63285;BME280;49409;55.708;37.522;2023-02-25T11:30:21;97424.03;;;10.32;46.05
63285;BME280;49409;55.708;37.522;2023-02-25T11:32:51;97413.66;;;10.27;46.05
63285;BME280;49409;55.708;37.522;2023-02-25T11:35:27;97408.03;;;10.31;46.34
63285;BME280;49409;55.708;37.522;2023-02-25T11:37:55;97420.53;;;10.32;46.37
63285;BME280;49409;55.708;37.522;2023-02-25T11:40:28;97418.38;;;10.36;46.08
63285;BME280;49409;55.708;37.522;2023-02-25T11:45:29;97419.72;;;10.50;45.92
63285;BME280;49409;55.708;37.522;2023-02-25T11:47:55;97414.66;;;10.58;46.21
63285;BME280;49409;55.708;37.522;2023-02-25T11:50:25;97426.84;;;10.66;45.62
63285;BME280;49409;55.708;37.522;2023-02-25T11:55:49;97433.31;;;10.54;46.17
63285;BME280;49409;55.708;37.522;2023-02-25T11:58:25;97433.00;;;10.51;45.88
63285;BME280;49409;55.708;37.522;2023-02-25T12:01:03;97427.97;;;10.50;46.31
63285;BME280;49409;55.708;37.522;2023-02-25T12:24:34;97447.66;;;10.58;45.89
63285;BME280;49409;55.708;37.522;2023-02-25T12:29:54;97444.63;;;10.46;46.24
63285;BME280;49409;55.708;37.522;2023-02-25T12:43:33;97445.59;;;10.34;46.26
63285;BME280;49409;55.708;37.522;2023-02-25T12:46:12;97450.47;;;10.30;46.41
63285;BME280;49409;55.708;37.522;2023-02-25T13:06:57;97447.44;;;10.09;47.10
63285;BME280;49409;55.708;37.522;2023-02-25T13:25:49;97426.69;;;10.08;47.47
63285;BME280;49409;55.708;37.522;2023-02-25T13:36:16;97432.22;;;9.99;47.60
63285;BME280;49409;55.708;37.522;2023-02-25T13:39:12;97443.94;;;9.90;47.90
63285;BME280;49409;55.708;37.522;2023-02-25T13:41:49;97435.09;;;9.86;47.56
63285;BME280;49409;55.708;37.522;2023-02-25T14:00:46;97415.56;;;9.75;48.18
63285;BME280;49409;55.708;37.522;2023-02-25T14:11:40;97430.25;;;9.72;48.16
63285;BME280;49409;55.708;37.522;2023-02-25T14:34:57;97441.69;;;9.70;48.28
63285;BME280;49409;55.708;37.522;2023-02-25T14:58:51;97426.56;;;9.29;49.61
63285;BME280;49409;55.708;37.522;2023-02-25T15:04:03;97418.94;;;9.33;49.61
63285;BME280;49409;55.708;37.522;2023-02-25T15:16:51;97428.25;;;9.45;49.39
63285;BME280;49409;55.708;37.522;2023-02-25T15:21:47;97429.47;;;9.53;49.43
63285;BME280;49409;55.708;37.522;2023-02-25T15:26:51;97425.22;;;9.52;49.43
63285;BME280;49409;55.708;37.522;2023-02-25T15:34:35;97418.16;;;9.42;49.55
63285;BME280;49409;55.708;37.522;2023-02-25T15:37:20;97419.09;;;9.39;50.34
63285;BME280;49409;55.708;37.522;2023-02-25T15:39:47;97421.84;;;9.39;49.81
63285;BME280;49409;55.708;37.522;2023-02-25T15:42:12;97422.75;;;9.45;49.30
63285;BME280;49409;55.708;37.522;2023-02-25T15:44:39;97414.81;;;9.38;49.62
63285;BME280;49409;55.708;37.522;2023-02-25T15:47:18;97413.00;;;9.35;49.76
63285;BME280;49409;55.708;37.522;2023-02-25T15:49:47;97416.47;;;9.26;50.57
63285;BME280;49409;55.708;37.522;2023-02-25T15:52:13;97415.72;;;9.25;49.93
63285;BME280;49409;55.708;37.522;2023-02-25T15:57:42;97402.16;;;9.12;50.33
63285;BME280;49409;55.708;37.522;2023-02-25T16:00:54;97402.28;;;9.09;50.32
63285;BME280;49409;55.708;37.522;2023-02-25T16:02:56;97408.25;;;9.17;49.75
63285;BME280;49409;55.708;37.522;2023-02-25T16:05:23;97404.75;;;9.25;49.59
63285;BME280;49409;55.708;37.522;2023-02-25T16:08:04;97405.69;;;9.22;50.00
63285;BME280;49409;55.708;37.522;2023-02-25T16:12:56;97420.00;;;9.17;49.87
63285;BME280;49409;55.708;37.522;2023-02-25T16:15:26;97412.34;;;9.12;50.18
63285;BME280;49409;55.708;37.522;2023-02-25T16:17:55;97404.72;;;9.07;50.33
63285;BME280;49409;55.708;37.522;2023-02-25T16:22:54;97405.94;;;8.97;50.44
63285;BME280;49409;55.708;37.522;2023-02-25T16:25:22;97410.22;;;9.07;50.25
63285;BME280;49409;55.708;37.522;2023-02-25T16:27:53;97413.88;;;9.13;49.84
63285;BME280;49409;55.708;37.522;2023-02-25T16:30:23;97403.97;;;9.06;50.48
63285;BME280;49409;55.708;37.522;2023-02-25T16:32:58;97399.22;;;8.98;50.26
63285;BME280;49409;55.708;37.522;2023-02-25T16:35:46;97390.09;;;9.01;50.13
63285;BME280;49409;55.708;37.522;2023-02-25T16:38:19;97390.84;;;9.01;50.25
63285;BME280;49409;55.708;37.522;2023-02-25T16:40:45;97386.72;;;9.06;50.47
63285;BME280;49409;55.708;37.522;2023-02-25T16:43:19;97382.47;;;8.96;50.89
63285;BME280;49409;55.708;37.522;2023-02-25T16:46:03;97390.66;;;8.86;50.67
63285;BME280;49409;55.708;37.522;2023-02-25T16:51:06;97387.31;;;8.91;50.26
63285;BME280;49409;55.708;37.522;2023-02-25T16:53:32;97363.09;;;8.90;51.16
63285;BME280;49409;55.708;37.522;2023-02-25T16:55:58;97366.91;;;8.92;50.40
63285;BME280;49409;55.708;37.522;2023-02-25T16:58:24;97371.63;;;8.92;50.50